Time;durP1;ratioP1;P1;durP2;ratioP2;P2;SDS_P1;SDS_P2;PMS_P1;PMS_P2;Temp;Humidity;BMP_temperature;BMP_pressure;BME280_temperature;BME280_humidity;BME280_pressure;Samples;Min_cycle;Max_cycle;Signal;HPM_P1;HPM_P2
2022/12/15 00:41:07;;;;;;;16.13;12.57;;;;;;;;;;4924516;28;20303;-61
2022/12/15 00:43:35;;;;;;;15.97;11.83;;;;;;;;;;4930086;28;20634;-62
2022/12/15 00:48:50;;;;;;;13.47;11.03;;;;;;;;;;4927002;28;20691;-63
2022/12/15 00:51:18;;;;;;;15.37;12.03;;;;;;;;;;4931582;28;20687;-63
2022/12/15 01:21:32;;;;;;;20.17;14.43;;;;;;;;;;4934850;28;20752;-62
2022/12/15 01:23:59;;;;;;;19.53;14.77;;;;;;;;;;4932417;28;20220;-62
2022/12/15 01:26:27;;;;;;;19.97;14.70;;;;;;;;;;4936415;28;20220;-62
2022/12/15 01:28:55;;;;;;;21.77;15.13;;;;;;;;;;4933371;28;20205;-62
2022/12/15 01:31:23;;;;;;;20.47;15.30;;;;;;;;;;4929152;28;20236;-63
2022/12/15 01:33:55;;;;;;;19.77;14.83;;;;;;;;;;4934013;28;20711;-64
2022/12/15 01:36:22;;;;;;;19.10;14.47;;;;;;;;;;4932226;28;20839;-63
2022/12/15 01:38:49;;;;;;;18.77;14.13;;;;;;;;;;4937070;28;20244;-63
2022/12/15 01:41:20;;;;;;;17.93;13.77;;;;;;;;;;4928225;28;20245;-63
2022/12/15 01:43:48;;;;;;;19.63;14.23;;;;;;;;;;4934807;28;20403;-63
2022/12/15 01:46:18;;;;;;;17.60;13.57;;;;;;;;;;4930641;28;21403;-63
2022/12/15 01:48:56;;;;;;;17.57;13.83;;;;;;;;;;4933970;28;20228;-63
2022/12/15 01:51:24;;;;;;;18.17;13.70;;;;;;;;;;4928798;28;20240;-63
2022/12/15 01:54:01;;;;;;;18.67;13.13;;;;;;;;;;4928092;28;20206;-62
2022/12/15 01:56:30;;;;;;;17.07;13.37;;;;;;;;;;4938594;28;20916;-62
2022/12/15 01:59:04;;;;;;;18.37;13.83;;;;;;;;;;4949762;28;20236;-62
2022/12/15 02:01:32;;;;;;;16.90;13.40;;;;;;;;;;4942913;28;20241;-63
2022/12/15 02:04:00;;;;;;;16.83;12.77;;;;;;;;;;4945006;28;20703;-62
2022/12/15 02:06:28;;;;;;;16.53;13.13;;;;;;;;;;4936840;28;20251;-63
2022/12/15 02:08:58;;;;;;;15.80;12.10;;;;;;;;;;4929850;28;20217;-62
2022/12/15 02:11:32;;;;;;;16.63;12.67;;;;;;;;;;4932466;28;20233;-62
2022/12/15 02:14:02;;;;;;;15.40;12.37;;;;;;;;;;4927666;28;20217;-62
2022/12/15 02:16:49;;;;;;;15.90;12.50;;;;;;;;;;4931974;28;20214;-63
2022/12/15 02:19:16;;;;;;;17.03;13.37;;;;;;;;;;4933899;28;20287;-62
2022/12/15 02:21:54;;;;;;;15.73;12.17;;;;;;;;;;4927201;28;20611;-62
2022/12/15 02:24:47;;;;;;;17.10;12.33;;;;;;;;;;4930898;28;20463;-63
2022/12/15 02:27:24;;;;;;;14.77;12.03;;;;;;;;;;4933165;28;20260;-64
2022/12/15 02:30:12;;;;;;;16.23;13.03;;;;;;;;;;4935153;28;20299;-64
2022/12/15 02:32:46;;;;;;;17.67;13.03;;;;;;;;;;4925318;28;20304;-63
2022/12/15 02:35:20;;;;;;;14.60;12.00;;;;;;;;;;4925838;28;20355;-62
2022/12/15 02:37:47;;;;;;;14.20;11.73;;;;;;;;;;4927303;28;20233;-63
2022/12/15 02:40:16;;;;;;;16.80;12.93;;;;;;;;;;4927425;28;20260;-62
2022/12/15 02:42:45;;;;;;;19.13;14.17;;;;;;;;;;4931186;28;20239;-63
2022/12/15 02:45:20;;;;;;;19.60;14.63;;;;;;;;;;4928502;28;20320;-62
2022/12/15 02:48:06;;;;;;;18.27;13.83;;;;;;;;;;4921417;28;21623;-63
2022/12/15 02:50:47;;;;;;;15.87;12.70;;;;;;;;;;4920970;28;20878;-61
2022/12/15 02:53:20;;;;;;;16.07;12.27;;;;;;;;;;4932205;28;20220;-62
2022/12/15 02:55:51;;;;;;;17.27;12.73;;;;;;;;;;4928291;28;20214;-64
2022/12/15 02:58:27;;;;;;;16.83;12.50;;;;;;;;;;4924717;28;20233;-62
2022/12/15 03:01:00;;;;;;;17.97;12.83;;;;;;;;;;4929367;28;20327;-63
2022/12/15 03:03:28;;;;;;;16.57;12.97;;;;;;;;;;4931148;28;20212;-63
2022/12/15 03:05:56;;;;;;;15.23;11.80;;;;;;;;;;4927574;28;20210;-63
2022/12/15 03:08:25;;;;;;;13.73;11.03;;;;;;;;;;4929807;28;20678;-64
2022/12/15 03:10:54;;;;;;;14.60;11.27;;;;;;;;;;4924307;28;20244;-63
2022/12/15 03:13:21;;;;;;;15.17;11.57;;;;;;;;;;4929441;28;20260;-64
2022/12/15 03:15:48;;;;;;;14.87;11.47;;;;;;;;;;4928731;28;20227;-62
2022/12/15 03:18:16;;;;;;;15.10;11.43;;;;;;;;;;4929900;28;20219;-63
2022/12/15 03:20:43;;;;;;;15.60;11.43;;;;;;;;;;4926442;28;20233;-63
2022/12/15 03:23:11;;;;;;;13.77;11.00;;;;;;;;;;4934665;28;20293;-63
2022/12/15 03:25:38;;;;;;;14.20;11.30;;;;;;;;;;4925056;28;20214;-63
2022/12/15 03:28:06;;;;;;;13.80;11.27;;;;;;;;;;4933766;28;20300;-63
2022/12/15 03:30:33;;;;;;;13.53;10.60;;;;;;;;;;4927057;28;20894;-63
2022/12/15 03:33:01;;;;;;;12.97;10.13;;;;;;;;;;4929632;28;20275;-62
2022/12/15 03:35:28;;;;;;;12.73;10.67;;;;;;;;;;4924732;28;20351;-64
2022/12/15 03:37:55;;;;;;;14.50;11.47;;;;;;;;;;4929605;28;20217;-63
2022/12/15 03:40:23;;;;;;;11.77;10.13;;;;;;;;;;4929609;28;20269;-63
2022/12/15 03:42:50;;;;;;;14.97;11.47;;;;;;;;;;4928151;28;20310;-62
2022/12/15 03:45:23;;;;;;;13.20;10.83;;;;;;;;;;4930575;28;20222;-63
2022/12/15 03:47:51;;;;;;;13.67;10.47;;;;;;;;;;4925130;28;20222;-62
2022/12/15 03:50:20;;;;;;;12.27;9.90;;;;;;;;;;4928783;28;20308;-62
2022/12/15 03:52:58;;;;;;;13.40;10.60;;;;;;;;;;4929935;28;20227;-63
2022/12/15 03:55:27;;;;;;;10.47;8.90;;;;;;;;;;4925131;28;20256;-62
2022/12/15 03:57:55;;;;;;;10.33;9.23;;;;;;;;;;4944404;28;20389;-62
2022/12/15 04:00:25;;;;;;;9.20;8.30;;;;;;;;;;4944346;29;20284;-63
2022/12/15 04:02:56;;;;;;;11.10;9.00;;;;;;;;;;4947621;29;20303;-63
2022/12/15 04:05:25;;;;;;;10.37;9.27;;;;;;;;;;4933265;28;20312;-62
2022/12/15 04:07:53;;;;;;;10.03;8.50;;;;;;;;;;4940171;28;20233;-63
2022/12/15 04:10:20;;;;;;;12.67;8.47;;;;;;;;;;4947951;28;20226;-63
2022/12/15 04:12:48;;;;;;;10.43;8.73;;;;;;;;;;4945346;28;20736;-64
2022/12/15 04:15:15;;;;;;;11.60;9.50;;;;;;;;;;4956987;28;20261;-62
2022/12/15 04:17:42;;;;;;;10.57;9.27;;;;;;;;;;4919444;28;20439;-62
2022/12/15 04:20:10;;;;;;;12.87;10.53;;;;;;;;;;4913026;28;20288;-62
2022/12/15 04:22:42;;;;;;;12.40;10.23;;;;;;;;;;4929163;28;20373;-62
2022/12/15 05:32:07;;;;;;;12.50;9.80;;;;;;;;;;4924861;28;20252;-64
2022/12/15 05:34:36;;;;;;;10.77;9.40;;;;;;;;;;4921411;28;20202;-64
2022/12/15 05:37:04;;;;;;;11.67;9.67;;;;;;;;;;4925560;28;20304;-62
2022/12/15 05:39:31;;;;;;;12.63;10.17;;;;;;;;;;4930594;28;20233;-64
2022/12/15 05:41:59;;;;;;;12.87;9.70;;;;;;;;;;4929381;28;20336;-63
2022/12/15 05:44:27;;;;;;;11.57;9.13;;;;;;;;;;4928313;28;20302;-63
2022/12/15 05:46:55;;;;;;;9.77;8.47;;;;;;;;;;4939794;28;21337;-64
2022/12/15 05:49:22;;;;;;;9.63;8.60;;;;;;;;;;4941457;28;20613;-62
2022/12/15 05:51:49;;;;;;;9.73;8.40;;;;;;;;;;4927565;28;20349;-62
2022/12/15 05:54:18;;;;;;;11.37;9.20;;;;;;;;;;4932108;28;20302;-62
2022/12/15 05:56:46;;;;;;;11.40;9.10;;;;;;;;;;4932807;28;20308;-63
2022/12/15 05:59:17;;;;;;;11.90;9.27;;;;;;;;;;4936881;28;20253;-63
2022/12/15 06:01:45;;;;;;;10.10;8.33;;;;;;;;;;4948916;28;20241;-63
2022/12/15 06:04:13;;;;;;;9.07;8.07;;;;;;;;;;4947243;28;20707;-63
2022/12/15 06:06:41;;;;;;;10.97;8.63;;;;;;;;;;4937465;28;20265;-63
2022/12/15 06:09:08;;;;;;;10.07;8.37;;;;;;;;;;4938921;28;20201;-61
2022/12/15 06:11:36;;;;;;;11.70;9.13;;;;;;;;;;4927221;28;20316;-62
2022/12/15 06:14:03;;;;;;;12.23;9.50;;;;;;;;;;4934182;28;20335;-61
2022/12/15 06:16:31;;;;;;;11.80;9.57;;;;;;;;;;4929373;28;20543;-62
2022/12/15 06:19:00;;;;;;;12.57;9.60;;;;;;;;;;4933459;28;20205;-61
2022/12/15 06:21:29;;;;;;;12.50;9.93;;;;;;;;;;4929561;28;20256;-62
2022/12/15 06:23:56;;;;;;;19.87;14.80;;;;;;;;;;4923318;28;20336;-62
2022/12/15 06:26:25;;;;;;;19.17;13.30;;;;;;;;;;4930907;28;20291;-62
2022/12/15 06:28:54;;;;;;;27.30;19.50;;;;;;;;;;4925811;28;20213;-62
2022/12/15 06:31:22;;;;;;;18.23;13.53;;;;;;;;;;4933194;28;20256;-62
2022/12/15 06:33:49;;;;;;;17.07;12.17;;;;;;;;;;4931420;28;20256;-63
2022/12/15 06:36:24;;;;;;;17.40;13.60;;;;;;;;;;4937407;28;20274;-62
2022/12/15 06:38:51;;;;;;;17.40;13.57;;;;;;;;;;4933119;28;20295;-62
2022/12/15 06:41:21;;;;;;;15.00;11.17;;;;;;;;;;4931764;28;20668;-63
2022/12/15 06:43:49;;;;;;;14.23;11.20;;;;;;;;;;4927200;28;20229;-62
2022/12/15 06:46:17;;;;;;;14.47;12.07;;;;;;;;;;4928935;28;20244;-62
2022/12/15 06:48:45;;;;;;;13.83;11.03;;;;;;;;;;4929078;28;20244;-62
2022/12/15 06:51:13;;;;;;;13.07;10.60;;;;;;;;;;4929155;28;20285;-62
2022/12/15 06:53:52;;;;;;;17.87;12.87;;;;;;;;;;4921744;28;20228;-63
2022/12/15 06:56:20;;;;;;;17.67;12.77;;;;;;;;;;4936626;28;20228;-64
2022/12/15 06:59:00;;;;;;;18.43;12.87;;;;;;;;;;4935118;28;20312;-63
2022/12/15 07:01:28;;;;;;;16.97;12.07;;;;;;;;;;4925610;28;20237;-64
2022/12/15 07:03:55;;;;;;;16.17;11.93;;;;;;;;;;4933843;28;20321;-61
2022/12/15 07:06:23;;;;;;;16.47;12.27;;;;;;;;;;4930433;28;20313;-60
2022/12/15 07:08:53;;;;;;;17.27;12.93;;;;;;;;;;4943420;28;20733;-62
2022/12/15 07:11:21;;;;;;;19.53;14.07;;;;;;;;;;4926742;28;20229;-63
2022/12/15 07:13:49;;;;;;;18.90;14.13;;;;;;;;;;4926189;28;20757;-61
2022/12/15 07:16:16;;;;;;;18.53;13.23;;;;;;;;;;4930948;28;20654;-61
2022/12/15 07:18:47;;;;;;;21.67;14.47;;;;;;;;;;4926859;28;20222;-61
2022/12/15 07:21:15;;;;;;;19.83;13.37;;;;;;;;;;4928590;28;20234;-61
2022/12/15 07:23:43;;;;;;;19.37;13.10;;;;;;;;;;4931436;28;20316;-63
2022/12/15 07:26:27;;;;;;;19.70;14.07;;;;;;;;;;4928517;28;20202;-62
2022/12/15 07:28:55;;;;;;;21.80;13.93;;;;;;;;;;4930715;28;20701;-64
2022/12/15 07:31:23;;;;;;;20.97;13.80;;;;;;;;;;4926385;28;20889;-62
2022/12/15 07:33:51;;;;;;;22.43;15.57;;;;;;;;;;4930917;28;20221;-63
2022/12/15 07:36:19;;;;;;;23.03;15.10;;;;;;;;;;4940062;28;20304;-62
2022/12/15 07:38:46;;;;;;;22.43;15.27;;;;;;;;;;4930457;28;20696;-62
2022/12/15 07:41:17;;;;;;;26.13;16.20;;;;;;;;;;4928527;28;20332;-63
2022/12/15 07:43:46;;;;;;;27.40;18.13;;;;;;;;;;4924782;28;20356;-62
2022/12/15 07:46:14;;;;;;;23.10;15.87;;;;;;;;;;4930214;28;20442;-62
2022/12/15 07:48:41;;;;;;;21.33;15.40;;;;;;;;;;4921027;28;20264;-62
2022/12/15 07:51:09;;;;;;;25.00;17.50;;;;;;;;;;4928629;28;20316;-62
2022/12/15 07:53:46;;;;;;;24.07;17.30;;;;;;;;;;4924981;28;20271;-63
2022/12/15 07:56:14;;;;;;;24.27;16.93;;;;;;;;;;4939364;28;20292;-63
2022/12/15 07:58:41;;;;;;;26.03;18.60;;;;;;;;;;4949080;28;20217;-63
2022/12/15 08:01:11;;;;;;;30.63;20.33;;;;;;;;;;4943380;28;20936;-61
2022/12/15 08:03:39;;;;;;;29.17;20.47;;;;;;;;;;4934874;28;20712;-63
2022/12/15 08:06:11;;;;;;;28.77;20.23;;;;;;;;;;4928501;28;20857;-62
2022/12/15 08:08:39;;;;;;;27.40;19.33;;;;;;;;;;4936053;28;20629;-64
2022/12/15 08:11:07;;;;;;;23.03;16.33;;;;;;;;;;4941869;28;20233;-62
2022/12/15 08:13:35;;;;;;;26.03;19.40;;;;;;;;;;4947281;28;20218;-64
2022/12/15 08:16:23;;;;;;;26.70;17.87;;;;;;;;;;4941670;28;20220;-63
2022/12/15 08:18:50;;;;;;;24.50;16.87;;;;;;;;;;4940982;28;20316;-61
2022/12/15 08:21:17;;;;;;;26.03;17.47;;;;;;;;;;4927821;28;20237;-61
2022/12/15 08:23:45;;;;;;;23.53;16.67;;;;;;;;;;4933210;28;20626;-63
2022/12/15 08:26:14;;;;;;;27.93;18.47;;;;;;;;;;4929390;28;20434;-63
2022/12/15 08:28:41;;;;;;;27.63;18.00;;;;;;;;;;4934290;28;20221;-62
2022/12/15 08:31:10;;;;;;;26.90;16.83;;;;;;;;;;4935751;28;21276;-63
2022/12/15 08:33:38;;;;;;;26.10;17.47;;;;;;;;;;4931829;28;20895;-64
2022/12/15 08:36:06;;;;;;;26.87;17.63;;;;;;;;;;4939159;28;20301;-62
2022/12/15 08:38:34;;;;;;;30.53;19.23;;;;;;;;;;4933290;28;20205;-62
2022/12/15 08:41:15;;;;;;;30.23;19.43;;;;;;;;;;4939312;28;20304;-62
2022/12/15 08:43:43;;;;;;;29.87;18.80;;;;;;;;;;4939708;28;20265;-63
2022/12/15 08:46:19;;;;;;;27.47;19.10;;;;;;;;;;4935641;28;20202;-62
2022/12/15 08:48:46;;;;;;;31.10;20.03;;;;;;;;;;4938940;28;20453;-61
2022/12/15 08:51:14;;;;;;;29.17;19.03;;;;;;;;;;4935357;28;20316;-62
2022/12/15 08:53:42;;;;;;;32.03;20.40;;;;;;;;;;4939290;28;20304;-61
2022/12/15 08:56:11;;;;;;;31.43;20.07;;;;;;;;;;4932763;28;20222;-61
2022/12/15 08:58:38;;;;;;;31.17;20.50;;;;;;;;;;4938027;28;20210;-62
2022/12/15 09:01:11;;;;;;;30.23;19.57;;;;;;;;;;4933617;28;20247;-61
2022/12/15 09:03:46;;;;;;;33.27;20.50;;;;;;;;;;4935926;28;20357;-61
2022/12/15 09:06:15;;;;;;;36.93;22.37;;;;;;;;;;4936130;28;20310;-61
2022/12/15 09:08:42;;;;;;;41.83;25.80;;;;;;;;;;4935786;28;21044;-63
2022/12/15 09:11:14;;;;;;;44.40;25.97;;;;;;;;;;4934583;28;20241;-62
2022/12/15 09:13:41;;;;;;;32.07;21.73;;;;;;;;;;4934142;28;20305;-61
2022/12/15 09:16:14;;;;;;;29.07;19.80;;;;;;;;;;4933793;28;20308;-60
2022/12/15 09:18:42;;;;;;;30.70;20.30;;;;;;;;;;4937789;28;20221;-62
2022/12/15 09:21:10;;;;;;;33.30;20.57;;;;;;;;;;4933244;28;20689;-63
2022/12/15 09:23:37;;;;;;;33.93;21.33;;;;;;;;;;4943249;28;20209;-62
2022/12/15 09:26:07;;;;;;;33.07;21.97;;;;;;;;;;4936787;28;20292;-62
2022/12/15 09:28:36;;;;;;;31.73;21.47;;;;;;;;;;4929446;28;20734;-62
2022/12/15 09:31:04;;;;;;;32.97;21.70;;;;;;;;;;4933433;28;20222;-63
2022/12/15 09:33:31;;;;;;;35.07;22.20;;;;;;;;;;4934255;28;20337;-62
2022/12/15 09:36:00;;;;;;;33.13;22.23;;;;;;;;;;4933069;28;20644;-63
2022/12/15 09:38:28;;;;;;;32.13;21.47;;;;;;;;;;4930583;28;20237;-63
2022/12/15 09:40:55;;;;;;;36.33;22.47;;;;;;;;;;4928676;28;20317;-61
2022/12/15 09:43:24;;;;;;;32.23;21.33;;;;;;;;;;4931030;28;20280;-62
2022/12/15 09:46:25;;;;;;;32.30;21.07;;;;;;;;;;4926919;28;20219;-62
2022/12/15 09:48:55;;;;;;;28.47;20.03;;;;;;;;;;4928893;28;20587;-62
2022/12/15 09:51:26;;;;;;;30.73;21.30;;;;;;;;;;4934022;28;20236;-62
2022/12/15 09:53:54;;;;;;;33.40;23.37;;;;;;;;;;4930398;28;20571;-63
2022/12/15 09:56:28;;;;;;;31.07;20.20;;;;;;;;;;4941583;28;20214;-62
2022/12/15 09:59:01;;;;;;;34.13;22.40;;;;;;;;;;4936953;28;20245;-63
2022/12/15 10:01:38;;;;;;;31.10;20.87;;;;;;;;;;4945796;28;20860;-62
2022/12/15 10:04:18;;;;;;;33.30;21.67;;;;;;;;;;4943196;28;20596;-62
2022/12/15 10:06:57;;;;;;;34.57;22.47;;;;;;;;;;4930142;28;20260;-62
2022/12/15 10:09:29;;;;;;;35.33;23.10;;;;;;;;;;4930871;28;20376;-61
2022/12/15 10:12:01;;;;;;;34.83;22.63;;;;;;;;;;4931080;28;20362;-62
2022/12/15 10:14:43;;;;;;;31.67;20.50;;;;;;;;;;4928721;28;20250;-62
2022/12/15 10:17:20;;;;;;;35.77;22.87;;;;;;;;;;4928890;28;20649;-62
2022/12/15 10:20:12;;;;;;;41.67;25.13;;;;;;;;;;4925880;28;20391;-62
2022/12/15 10:22:41;;;;;;;37.00;23.47;;;;;;;;;;4927813;28;20221;-62
2022/12/15 10:25:14;;;;;;;38.40;23.87;;;;;;;;;;4930625;28;20896;-62
2022/12/15 10:27:51;;;;;;;39.50;24.17;;;;;;;;;;4922188;28;20343;-62
2022/12/15 10:30:18;;;;;;;35.93;22.57;;;;;;;;;;4934797;28;20250;-62
2022/12/15 10:32:49;;;;;;;37.60;23.03;;;;;;;;;;4931598;28;20244;-62
2022/12/15 10:35:22;;;;;;;36.93;23.80;;;;;;;;;;4931664;28;20209;-62
2022/12/15 10:37:49;;;;;;;36.57;23.23;;;;;;;;;;4934934;28;20249;-61
2022/12/15 10:40:18;;;;;;;35.20;23.03;;;;;;;;;;4933014;28;20373;-62
2022/12/15 10:42:49;;;;;;;37.00;22.97;;;;;;;;;;4935831;28;20296;-63
2022/12/15 10:45:32;;;;;;;36.67;23.73;;;;;;;;;;4932704;28;20216;-63
2022/12/15 10:48:02;;;;;;;36.10;22.60;;;;;;;;;;4921820;28;20294;-62
2022/12/15 10:50:30;;;;;;;37.33;22.97;;;;;;;;;;4927859;28;20308;-62
2022/12/15 10:52:57;;;;;;;36.63;23.30;;;;;;;;;;4929923;28;20312;-63
2022/12/15 10:55:31;;;;;;;36.30;24.13;;;;;;;;;;4930440;28;20297;-62
2022/12/15 10:57:59;;;;;;;36.20;22.50;;;;;;;;;;4931115;28;20313;-62
2022/12/15 11:00:28;;;;;;;35.30;22.40;;;;;;;;;;4925996;28;20240;-63
2022/12/15 11:02:56;;;;;;;36.80;23.10;;;;;;;;;;4929363;28;20517;-62
2022/12/15 11:05:25;;;;;;;35.80;22.43;;;;;;;;;;4923203;28;20725;-63
2022/12/15 11:08:12;;;;;;;32.50;21.07;;;;;;;;;;4928773;28;20295;-62
2022/12/15 11:13:35;;;;;;;31.97;20.67;;;;;;;;;;4923931;28;20206;-61
2022/12/15 11:16:13;;;;;;;31.70;19.90;;;;;;;;;;4925298;28;20690;-61
2022/12/15 11:18:44;;;;;;;34.33;21.10;;;;;;;;;;4926544;28;20217;-61
2022/12/15 11:21:49;;;;;;;31.03;19.60;;;;;;;;;;4928242;28;20324;-62
2022/12/15 11:24:16;;;;;;;33.73;20.17;;;;;;;;;;4938878;28;20796;-63
2022/12/15 11:27:02;;;;;;;34.97;19.87;;;;;;;;;;4926619;28;20210;-62
2022/12/15 11:29:49;;;;;;;39.10;23.60;;;;;;;;;;4942230;28;20236;-63
2022/12/15 11:32:18;;;;;;;38.60;23.73;;;;;;;;;;4923009;28;20320;-62
2022/12/15 11:34:46;;;;;;;43.83;24.00;;;;;;;;;;4923296;28;20244;-63
2022/12/15 11:37:29;;;;;;;41.93;24.17;;;;;;;;;;4928209;28;20208;-61
2022/12/15 11:40:14;;;;;;;47.67;26.20;;;;;;;;;;4928268;28;20209;-64
2022/12/15 11:43:00;;;;;;;47.50;25.47;;;;;;;;;;4925564;28;20219;-62
2022/12/15 11:45:36;;;;;;;46.77;25.37;;;;;;;;;;4926339;28;20220;-61
2022/12/15 11:48:09;;;;;;;51.63;25.17;;;;;;;;;;4923499;28;20322;-60
2022/12/15 11:50:37;;;;;;;45.57;25.27;;;;;;;;;;4924052;28;20233;-61
2022/12/15 11:53:04;;;;;;;44.53;24.93;;;;;;;;;;4921772;28;20310;-62
2022/12/15 11:55:38;;;;;;;45.77;24.77;;;;;;;;;;4929038;28;20219;-63
2022/12/15 11:58:11;;;;;;;47.73;27.03;;;;;;;;;;4924520;28;20225;-62
2022/12/15 12:00:54;;;;;;;45.93;26.07;;;;;;;;;;4937382;28;20324;-63
2022/12/15 12:03:27;;;;;;;45.03;24.30;;;;;;;;;;4939675;28;20267;-62
2022/12/15 12:06:07;;;;;;;50.00;26.67;;;;;;;;;;4945234;28;20260;-62
2022/12/15 12:08:43;;;;;;;51.20;27.93;;;;;;;;;;4945578;28;20284;-63
2022/12/15 12:11:15;;;;;;;49.27;26.40;;;;;;;;;;4931986;28;20229;-60
2022/12/15 12:13:46;;;;;;;45.90;25.33;;;;;;;;;;4933670;28;20632;-62
2022/12/15 12:16:28;;;;;;;55.00;28.80;;;;;;;;;;4943919;28;20863;-62
2022/12/15 12:19:00;;;;;;;44.80;25.07;;;;;;;;;;4933501;28;20293;-63
2022/12/15 12:21:31;;;;;;;37.57;22.67;;;;;;;;;;4937421;28;20226;-62
2022/12/15 12:24:13;;;;;;;38.47;23.33;;;;;;;;;;4932758;28;22176;-62
2022/12/15 12:26:43;;;;;;;37.63;21.57;;;;;;;;;;4932298;28;21155;-61
2022/12/15 12:29:30;;;;;;;35.07;21.57;;;;;;;;;;4931163;28;20276;-61
2022/12/15 12:32:06;;;;;;;35.10;22.87;;;;;;;;;;4933282;28;20227;-62
2022/12/15 12:34:34;;;;;;;33.43;20.83;;;;;;;;;;4934239;28;20243;-62
2022/12/15 12:37:20;;;;;;;36.73;21.83;;;;;;;;;;4941023;28;20560;-62
2022/12/15 12:39:49;;;;;;;38.80;23.40;;;;;;;;;;4922341;28;20304;-62
2022/12/15 12:42:28;;;;;;;34.07;21.70;;;;;;;;;;4936833;28;20402;-61
2022/12/15 12:44:55;;;;;;;32.97;21.03;;;;;;;;;;4935392;28;20379;-62
2022/12/15 12:47:26;;;;;;;28.97;18.37;;;;;;;;;;4939226;28;20284;-62
2022/12/15 12:49:56;;;;;;;29.13;20.00;;;;;;;;;;4933474;28;20206;-62
2022/12/15 12:52:24;;;;;;;31.60;20.13;;;;;;;;;;4937206;28;20209;-62
2022/12/15 12:54:57;;;;;;;30.30;19.87;;;;;;;;;;4938991;28;20300;-61
2022/12/15 12:57:41;;;;;;;28.97;18.23;;;;;;;;;;4930993;28;20217;-63
2022/12/15 13:00:15;;;;;;;37.97;20.60;;;;;;;;;;4936822;28;20312;-63
2022/12/15 13:02:53;;;;;;;38.17;23.27;;;;;;;;;;4935405;28;20217;-62
2022/12/15 13:05:29;;;;;;;35.43;20.93;;;;;;;;;;4933735;28;20233;-60
2022/12/15 13:08:06;;;;;;;34.13;20.60;;;;;;;;;;4935491;28;20245;-62
2022/12/15 13:10:36;;;;;;;31.30;19.77;;;;;;;;;;4941062;28;20312;-61
2022/12/15 13:13:15;;;;;;;33.23;21.50;;;;;;;;;;4935129;28;20301;-61
2022/12/15 13:15:44;;;;;;;29.97;20.00;;;;;;;;;;4939185;28;20220;-62
2022/12/15 13:18:24;;;;;;;33.67;20.10;;;;;;;;;;4935114;28;20505;-61
2022/12/15 13:20:55;;;;;;;33.70;19.70;;;;;;;;;;4934816;28;20244;-61
2022/12/15 13:23:22;;;;;;;31.20;19.93;;;;;;;;;;4936715;28;20725;-61
2022/12/15 13:25:53;;;;;;;31.17;19.73;;;;;;;;;;4931353;28;20207;-61
2022/12/15 13:28:26;;;;;;;32.47;19.73;;;;;;;;;;4938519;28;20209;-61
2022/12/15 13:31:12;;;;;;;31.90;19.93;;;;;;;;;;4934578;28;20324;-63
2022/12/15 13:33:49;;;;;;;34.80;19.60;;;;;;;;;;4950822;28;20221;-62
2022/12/15 13:36:36;;;;;;;33.43;19.17;;;;;;;;;;4940093;28;20202;-62
2022/12/15 13:39:23;;;;;;;33.10;19.87;;;;;;;;;;4943811;28;20229;-61
2022/12/15 13:41:51;;;;;;;32.77;20.03;;;;;;;;;;4933935;28;20256;-63
2022/12/15 13:44:45;;;;;;;32.07;18.80;;;;;;;;;;4934353;28;20233;-61
2022/12/15 13:47:16;;;;;;;33.90;20.07;;;;;;;;;;4935027;28;20206;-61
2022/12/15 13:49:48;;;;;;;33.50;19.03;;;;;;;;;;4934535;28;20363;-60
2022/12/15 13:52:23;;;;;;;35.87;20.20;;;;;;;;;;4937511;28;20568;-63
2022/12/15 13:55:17;;;;;;;37.20;20.97;;;;;;;;;;4940556;28;20662;-61
2022/12/15 13:58:11;;;;;;;32.87;19.53;;;;;;;;;;4946771;28;20221;-62
2022/12/15 14:00:39;;;;;;;33.50;19.93;;;;;;;;;;4947511;28;20260;-61
2022/12/15 14:03:06;;;;;;;36.17;21.00;;;;;;;;;;4952045;28;20263;-62
2022/12/15 14:05:35;;;;;;;39.77;21.60;;;;;;;;;;4946428;28;20240;-61
2022/12/15 14:08:07;;;;;;;39.33;21.27;;;;;;;;;;4939546;28;20222;-61
2022/12/15 14:10:37;;;;;;;36.47;20.53;;;;;;;;;;4934954;28;20283;-61
2022/12/15 14:13:24;;;;;;;37.97;21.23;;;;;;;;;;4934403;28;20717;-63
2022/12/15 14:16:02;;;;;;;35.50;20.70;;;;;;;;;;4938821;28;20237;-61
2022/12/15 14:18:33;;;;;;;38.30;21.23;;;;;;;;;;4939457;28;20353;-61
2022/12/15 14:21:04;;;;;;;34.10;19.83;;;;;;;;;;4936738;28;20272;-61
2022/12/15 14:23:42;;;;;;;33.47;20.17;;;;;;;;;;4938614;28;20217;-60
2022/12/15 14:26:30;;;;;;;35.80;19.20;;;;;;;;;;4940456;28;20216;-61
2022/12/15 14:29:02;;;;;;;36.87;19.97;;;;;;;;;;4941528;28;20219;-61
2022/12/15 14:31:30;;;;;;;35.57;19.37;;;;;;;;;;4939918;28;20328;-61
2022/12/15 14:34:02;;;;;;;41.60;24.43;;;;;;;;;;4939560;28;20210;-61
2022/12/15 14:36:30;;;;;;;39.23;23.00;;;;;;;;;;4952290;28;20272;-64
2022/12/15 14:39:02;;;;;;;37.13;21.00;;;;;;;;;;4938908;28;20234;-63
2022/12/15 14:41:32;;;;;;;37.63;20.53;;;;;;;;;;4920022;28;20328;-60
2022/12/15 14:44:20;;;;;;;37.17;21.00;;;;;;;;;;4937122;28;20328;-63
2022/12/15 14:47:15;;;;;;;32.07;19.40;;;;;;;;;;4941447;28;20237;-63
2022/12/15 14:49:44;;;;;;;34.00;20.10;;;;;;;;;;4940995;28;20225;-60
2022/12/15 14:52:27;;;;;;;37.63;22.13;;;;;;;;;;4938293;28;20240;-60
2022/12/15 14:54:58;;;;;;;37.27;20.67;;;;;;;;;;4934962;28;20244;-62
2022/12/15 14:57:28;;;;;;;39.87;21.23;;;;;;;;;;4938103;28;20232;-61
2022/12/15 14:59:55;;;;;;;37.13;21.87;;;;;;;;;;4936465;28;20669;-61
2022/12/15 15:02:28;;;;;;;38.87;20.73;;;;;;;;;;4936490;28;20316;-61
2022/12/15 15:04:58;;;;;;;45.20;23.13;;;;;;;;;;4930645;28;20229;-61
2022/12/15 15:07:30;;;;;;;44.80;22.77;;;;;;;;;;4932128;28;20206;-63
2022/12/15 15:09:58;;;;;;;42.57;22.10;;;;;;;;;;4933664;28;20209;-63
2022/12/15 15:12:33;;;;;;;45.20;22.80;;;;;;;;;;4918219;28;20235;-63
2022/12/15 15:15:03;;;;;;;43.73;22.33;;;;;;;;;;4923052;28;20296;-63
2022/12/15 15:17:30;;;;;;;48.70;23.50;;;;;;;;;;4923906;28;20589;-61
2022/12/15 15:20:04;;;;;;;49.03;24.20;;;;;;;;;;4913304;28;21125;-61
2022/12/15 15:22:40;;;;;;;59.53;26.73;;;;;;;;;;4922180;28;20689;-59
2022/12/15 15:25:28;;;;;;;55.77;26.50;;;;;;;;;;4924819;28;20809;-62
2022/12/15 15:28:18;;;;;;;54.37;24.53;;;;;;;;;;4920642;28;20220;-61
2022/12/15 15:30:53;;;;;;;51.63;24.77;;;;;;;;;;4917036;28;20265;-60
2022/12/15 15:33:23;;;;;;;49.53;24.73;;;;;;;;;;4921049;28;20206;-63
2022/12/15 15:35:52;;;;;;;50.27;23.87;;;;;;;;;;4919608;28;20296;-60
2022/12/15 15:38:19;;;;;;;52.22;29.88;;;;;;;;;;4939435;28;20546;-61
2022/12/15 15:40:51;;;;;;;63.95;36.70;;;;;;;;;;4936214;28;20543;-61
2022/12/15 15:43:21;;;;;;;46.30;22.87;;;;;;;;;;4924563;28;20245;-61
2022/12/15 15:45:50;;;;;;;47.30;21.70;;;;;;;;;;4921425;28;20315;-61
2022/12/15 15:48:23;;;;;;;44.33;22.53;;;;;;;;;;4935898;28;20214;-62
2022/12/15 15:50:51;;;;;;;46.03;24.17;;;;;;;;;;4920881;28;20228;-61
2022/12/15 15:53:19;;;;;;;46.70;23.53;;;;;;;;;;4923903;28;20757;-61
2022/12/15 15:55:49;;;;;;;49.83;23.00;;;;;;;;;;4927076;28;20304;-61
2022/12/15 15:58:17;;;;;;;54.53;31.43;;;;;;;;;;4931156;28;20555;-62
2022/12/15 16:00:44;;;;;;;45.37;25.10;;;;;;;;;;4942487;28;20265;-63
2022/12/15 16:03:12;;;;;;;49.92;28.25;;;;;;;;;;4938842;28;20518;-61
2022/12/15 16:05:40;;;;;;;48.03;24.60;;;;;;;;;;4936884;28;20244;-61
2022/12/15 16:08:12;;;;;;;49.65;30.40;;;;;;;;;;4936982;28;20481;-61
2022/12/15 16:10:41;;;;;;;46.90;25.10;;;;;;;;;;4920171;28;20324;-60
2022/12/15 16:13:09;;;;;;;44.93;24.27;;;;;;;;;;4927447;28;20300;-61
2022/12/15 16:15:36;;;;;;;45.63;26.23;;;;;;;;;;4935952;28;20221;-61
2022/12/15 16:18:04;;;;;;;42.50;21.80;;;;;;;;;;4923351;28;20260;-61
2022/12/15 16:20:32;;;;;;;38.23;20.53;;;;;;;;;;4928831;28;20321;-60
2022/12/15 16:23:01;;;;;;;45.63;23.73;;;;;;;;;;4920856;28;20216;-61
2022/12/15 16:25:31;;;;;;;49.93;24.33;;;;;;;;;;4928490;28;20321;-62
2022/12/15 16:28:14;;;;;;;45.10;22.13;;;;;;;;;;4927119;28;20209;-62
2022/12/15 16:30:43;;;;;;;44.47;21.77;;;;;;;;;;4927408;28;20233;-62
2022/12/15 16:33:11;;;;;;;46.60;23.20;;;;;;;;;;4937014;28;20209;-62
2022/12/15 16:35:39;;;;;;;44.20;21.77;;;;;;;;;;4933540;28;20682;-63
2022/12/15 16:38:12;;;;;;;47.60;21.73;;;;;;;;;;4922129;28;20699;-62
2022/12/15 16:40:40;;;;;;;50.67;26.33;;;;;;;;;;4928863;28;20248;-62
2022/12/15 16:43:26;;;;;;;46.83;24.92;;;;;;;;;;4924621;28;20972;-62
2022/12/15 16:46:02;;;;;;;50.00;25.50;;;;;;;;;;4928224;28;20240;-62
2022/12/15 16:48:29;;;;;;;48.73;23.13;;;;;;;;;;4928605;28;20273;-61
2022/12/15 16:50:58;;;;;;;52.53;26.13;;;;;;;;;;4926249;28;20237;-62
2022/12/15 16:53:27;;;;;;;45.30;21.93;;;;;;;;;;4925814;28;20223;-61
2022/12/15 16:55:56;;;;;;;44.40;21.07;;;;;;;;;;4917400;28;20213;-62
2022/12/15 16:58:26;;;;;;;46.47;24.87;;;;;;;;;;4915346;28;20213;-61
2022/12/15 17:00:53;;;;;;;44.23;23.17;;;;;;;;;;4922795;28;20246;-63
2022/12/15 17:03:27;;;;;;;50.47;24.33;;;;;;;;;;4926168;28;20225;-62
2022/12/15 17:06:00;;;;;;;43.23;22.87;;;;;;;;;;4925274;28;20229;-61